sensor_id;sensor_type;location;lat;lon;timestamp;pressure;altitude;pressure_sealevel;temperature;humidity
13705;BME280;6924;52.122;9.952;2022-07-10T00:02:18;101313.09;;;15.11;65.70
13705;BME280;6924;52.122;9.952;2022-07-10T00:04:44;101329.09;;;14.98;66.70
13705;BME280;6924;52.122;9.952;2022-07-10T00:07:11;101322.88;;;14.96;67.14
13705;BME280;6924;52.122;9.952;2022-07-10T00:09:37;101313.72;;;14.76;67.74
13705;BME280;6924;52.122;9.952;2022-07-10T00:12:04;101316.44;;;14.59;68.22
13705;BME280;6924;52.122;9.952;2022-07-10T00:14:30;101323.03;;;14.68;68.37
13705;BME280;6924;52.122;9.952;2022-07-10T00:16:57;101322.72;;;14.70;68.85
13705;BME280;6924;52.122;9.952;2022-07-10T00:19:25;101319.34;;;14.67;68.73
13705;BME280;6924;52.122;9.952;2022-07-10T00:21:51;101324.41;;;14.71;69.22
13705;BME280;6924;52.122;9.952;2022-07-10T00:24:18;101328.28;;;14.75;67.31
13705;BME280;6924;52.122;9.952;2022-07-10T00:26:44;101320.59;;;14.75;67.62
13705;BME280;6924;52.122;9.952;2022-07-10T00:29:11;101313.28;;;14.60;68.58
13705;BME280;6924;52.122;9.952;2022-07-10T00:31:38;101317.34;;;14.68;69.21
13705;BME280;6924;52.122;9.952;2022-07-10T00:34:04;101311.53;;;14.73;69.33
13705;BME280;6924;52.122;9.952;2022-07-10T00:36:33;101309.72;;;14.77;68.98
13705;BME280;6924;52.122;9.952;2022-07-10T00:39:00;101309.56;;;14.82;68.22
13705;BME280;6924;52.122;9.952;2022-07-10T00:41:26;101306.59;;;14.87;68.95
13705;BME280;6924;52.122;9.952;2022-07-10T00:43:54;101305.94;;;14.91;68.31
13705;BME280;6924;52.122;9.952;2022-07-10T00:46:22;101308.13;;;14.94;67.66
13705;BME280;6924;52.122;9.952;2022-07-10T00:48:49;101303.47;;;14.98;67.59
13705;BME280;6924;52.122;9.952;2022-07-10T00:51:17;101305.47;;;14.97;67.52
13705;BME280;6924;52.122;9.952;2022-07-10T00:53:45;101305.09;;;14.90;67.96
13705;BME280;6924;52.122;9.952;2022-07-10T00:56:16;101305.59;;;14.92;67.20
13705;BME280;6924;52.122;9.952;2022-07-10T00:58:43;101301.56;;;14.84;68.10
13705;BME280;6924;52.122;9.952;2022-07-10T01:01:10;101303.88;;;14.82;67.55
13705;BME280;6924;52.122;9.952;2022-07-10T01:03:37;101298.69;;;14.84;67.38
13705;BME280;6924;52.122;9.952;2022-07-10T01:06:04;101304.19;;;14.81;67.16
13705;BME280;6924;52.122;9.952;2022-07-10T01:08:30;101298.84;;;14.79;67.36
13705;BME280;6924;52.122;9.952;2022-07-10T01:10:58;101301.44;;;14.67;67.81
13705;BME280;6924;52.122;9.952;2022-07-10T01:13:25;101291.03;;;14.62;67.97
13705;BME280;6924;52.122;9.952;2022-07-10T01:15:52;101289.53;;;14.65;67.83
13705;BME280;6924;52.122;9.952;2022-07-10T01:18:19;101281.13;;;14.60;68.24
13705;BME280;6924;52.122;9.952;2022-07-10T01:20:46;101275.63;;;14.63;67.39
13705;BME280;6924;52.122;9.952;2022-07-10T01:23:13;101272.44;;;14.65;66.97
13705;BME280;6924;52.122;9.952;2022-07-10T01:25:40;101272.91;;;14.58;67.48
13705;BME280;6924;52.122;9.952;2022-07-10T01:28:06;101275.97;;;14.62;67.91
13705;BME280;6924;52.122;9.952;2022-07-10T01:30:33;101285.03;;;14.64;67.59
13705;BME280;6924;52.122;9.952;2022-07-10T01:32:59;101275.75;;;14.58;67.53
13705;BME280;6924;52.122;9.952;2022-07-10T01:35:26;101279.44;;;14.59;68.20
13705;BME280;6924;52.122;9.952;2022-07-10T01:37:52;101275.75;;;14.58;67.45
13705;BME280;6924;52.122;9.952;2022-07-10T01:40:20;101275.75;;;14.58;68.33
13705;BME280;6924;52.122;9.952;2022-07-10T01:42:46;101267.72;;;14.60;67.55
13705;BME280;6924;52.122;9.952;2022-07-10T01:45:16;101271.72;;;14.59;68.25
13705;BME280;6924;52.122;9.952;2022-07-10T01:47:43;101265.06;;;14.41;69.29
13705;BME280;6924;52.122;9.952;2022-07-10T01:50:10;101265.91;;;14.42;68.78
13705;BME280;6924;52.122;9.952;2022-07-10T01:52:36;101261.09;;;14.29;68.48
13705;BME280;6924;52.122;9.952;2022-07-10T01:55:03;101258.97;;;14.34;68.46
13705;BME280;6924;52.122;9.952;2022-07-10T01:57:31;101254.13;;;14.35;69.16
13705;BME280;6924;52.122;9.952;2022-07-10T01:59:57;101258.31;;;14.37;68.94
13705;BME280;6924;52.122;9.952;2022-07-10T02:02:24;101261.97;;;14.29;68.58
13705;BME280;6924;52.122;9.952;2022-07-10T02:04:51;101262.59;;;14.26;69.34
13705;BME280;6924;52.122;9.952;2022-07-10T02:07:17;101257.09;;;14.30;69.12
13705;BME280;6924;52.122;9.952;2022-07-10T02:09:46;101251.94;;;14.32;68.89
13705;BME280;6924;52.122;9.952;2022-07-10T02:12:14;101255.00;;;14.35;67.92
13705;BME280;6924;52.122;9.952;2022-07-10T02:14:43;101251.63;;;14.33;68.33
13705;BME280;6924;52.122;9.952;2022-07-10T02:17:09;101257.94;;;14.30;68.31
13705;BME280;6924;52.122;9.952;2022-07-10T02:19:36;101253.22;;;14.25;69.07
13705;BME280;6924;52.122;9.952;2022-07-10T02:22:03;101247.09;;;14.32;69.20
13705;BME280;6924;52.122;9.952;2022-07-10T02:24:30;101251.72;;;14.28;68.52
13705;BME280;6924;52.122;9.952;2022-07-10T02:26:56;101245.22;;;14.27;68.77
13705;BME280;6924;52.122;9.952;2022-07-10T02:29:23;101243.19;;;14.28;68.99
13705;BME280;6924;52.122;9.952;2022-07-10T02:31:51;101234.66;;;14.28;69.25
13705;BME280;6924;52.122;9.952;2022-07-10T02:34:17;101232.84;;;14.32;69.48
13705;BME280;6924;52.122;9.952;2022-07-10T02:36:44;101232.66;;;14.29;70.60
13705;BME280;6924;52.122;9.952;2022-07-10T02:39:10;101241.91;;;14.34;70.93
13705;BME280;6924;52.122;9.952;2022-07-10T02:41:37;101238.84;;;14.31;71.28
13705;BME280;6924;52.122;9.952;2022-07-10T02:44:03;101239.91;;;14.35;71.35
13705;BME280;6924;52.122;9.952;2022-07-10T02:46:30;101231.13;;;14.22;71.61
13705;BME280;6924;52.122;9.952;2022-07-10T02:48:58;101232.78;;;14.23;71.56
13705;BME280;6924;52.122;9.952;2022-07-10T02:51:24;101222.75;;;14.26;71.79
13705;BME280;6924;52.122;9.952;2022-07-10T02:53:51;101229.31;;;14.26;72.11
13705;BME280;6924;52.122;9.952;2022-07-10T02:56:17;101226.25;;;14.23;72.43
13705;BME280;6924;52.122;9.952;2022-07-10T02:58:43;101232.47;;;14.25;71.94
13705;BME280;6924;52.122;9.952;2022-07-10T03:01:10;101227.09;;;14.23;72.45
13705;BME280;6924;52.122;9.952;2022-07-10T03:03:36;101216.91;;;14.22;73.09
13705;BME280;6924;52.122;9.952;2022-07-10T03:06:04;101221.09;;;14.25;73.31
13705;BME280;6924;52.122;9.952;2022-07-10T03:08:31;101222.59;;;14.22;73.14
13705;BME280;6924;52.122;9.952;2022-07-10T03:10:57;101226.25;;;14.23;72.63
13705;BME280;6924;52.122;9.952;2022-07-10T03:13:24;101212.34;;;14.21;73.39
13705;BME280;6924;52.122;9.952;2022-07-10T03:15:53;101215.66;;;14.15;72.88
13705;BME280;6924;52.122;9.952;2022-07-10T03:18:19;101216.16;;;13.94;74.11
13705;BME280;6924;52.122;9.952;2022-07-10T03:20:46;101217.97;;;13.90;73.92
13705;BME280;6924;52.122;9.952;2022-07-10T03:23:14;101208.59;;;13.90;74.21
13705;BME280;6924;52.122;9.952;2022-07-10T03:25:40;101211.97;;;13.92;74.76
13705;BME280;6924;52.122;9.952;2022-07-10T03:28:07;101206.59;;;13.90;75.57
13705;BME280;6924;52.122;9.952;2022-07-10T03:30:33;101207.78;;;13.89;75.19
13705;BME280;6924;52.122;9.952;2022-07-10T03:33:00;101203.53;;;13.87;75.51
13705;BME280;6924;52.122;9.952;2022-07-10T03:35:28;101211.00;;;13.60;77.05
13705;BME280;6924;52.122;9.952;2022-07-10T03:37:56;101218.06;;;13.62;77.80
13705;BME280;6924;52.122;9.952;2022-07-10T03:40:24;101215.41;;;13.66;77.09
13705;BME280;6924;52.122;9.952;2022-07-10T03:42:51;101215.94;;;13.68;77.89
13705;BME280;6924;52.122;9.952;2022-07-10T03:45:18;101215.03;;;13.59;78.23
13705;BME280;6924;52.122;9.952;2022-07-10T03:47:44;101226.78;;;13.66;78.50
13705;BME280;6924;52.122;9.952;2022-07-10T03:50:11;101220.66;;;13.73;78.61
13705;BME280;6924;52.122;9.952;2022-07-10T03:52:37;101216.84;;;13.77;78.23
13705;BME280;6924;52.122;9.952;2022-07-10T03:55:05;101227.84;;;13.70;79.35
13705;BME280;6924;52.122;9.952;2022-07-10T03:57:33;101219.69;;;13.77;78.79
13705;BME280;6924;52.122;9.952;2022-07-10T04:00:16;101222.97;;;13.84;78.06
13705;BME280;6924;52.122;9.952;2022-07-10T04:02:42;101221.34;;;13.92;78.08
13705;BME280;6924;52.122;9.952;2022-07-10T04:05:09;101220.53;;;13.78;79.07
13705;BME280;6924;52.122;9.952;2022-07-10T04:07:36;101221.47;;;13.87;78.86
13705;BME280;6924;52.122;9.952;2022-07-10T04:10:03;101217.28;;;13.84;78.53
13705;BME280;6924;52.122;9.952;2022-07-10T04:12:29;101226.19;;;13.92;78.52
13705;BME280;6924;52.122;9.952;2022-07-10T04:14:57;101220.56;;;14.00;78.20
13705;BME280;6924;52.122;9.952;2022-07-10T04:17:24;101223.53;;;13.95;78.01
13705;BME280;6924;52.122;9.952;2022-07-10T04:19:50;101220.75;;;14.04;78.18
13705;BME280;6924;52.122;9.952;2022-07-10T04:22:16;101215.19;;;13.99;78.19
13705;BME280;6924;52.122;9.952;2022-07-10T04:24:43;101220.06;;;13.98;78.24
13705;BME280;6924;52.122;9.952;2022-07-10T04:27:09;101217.84;;;13.95;78.29
13705;BME280;6924;52.122;9.952;2022-07-10T04:29:36;101218.88;;;13.99;78.27
13705;BME280;6924;52.122;9.952;2022-07-10T04:32:04;101220.56;;;14.00;78.29
13705;BME280;6924;52.122;9.952;2022-07-10T04:34:31;101217.06;;;14.03;78.51
13705;BME280;6924;52.122;9.952;2022-07-10T04:36:57;101219.91;;;14.03;78.67
13705;BME280;6924;52.122;9.952;2022-07-10T04:39:23;101220.38;;;13.97;78.25
13705;BME280;6924;52.122;9.952;2022-07-10T04:41:50;101218.63;;;13.87;78.78
13705;BME280;6924;52.122;9.952;2022-07-10T04:44:17;101222.00;;;13.89;78.33
13705;BME280;6924;52.122;9.952;2022-07-10T04:46:43;101217.44;;;13.88;79.13
13705;BME280;6924;52.122;9.952;2022-07-10T04:49:11;101222.53;;;13.91;79.38
13705;BME280;6924;52.122;9.952;2022-07-10T04:51:38;101220.38;;;13.97;78.85
13705;BME280;6924;52.122;9.952;2022-07-10T04:54:04;101225.00;;;13.93;79.37
13705;BME280;6924;52.122;9.952;2022-07-10T04:56:30;101227.84;;;13.93;78.87
13705;BME280;6924;52.122;9.952;2022-07-10T04:58:57;101228.69;;;13.93;78.77
13705;BME280;6924;52.122;9.952;2022-07-10T05:01:23;101234.72;;;13.92;79.40
13705;BME280;6924;52.122;9.952;2022-07-10T05:03:50;101219.22;;;13.98;79.27
13705;BME280;6924;52.122;9.952;2022-07-10T05:06:18;101226.97;;;14.06;78.83
13705;BME280;6924;52.122;9.952;2022-07-10T05:08:44;101237.66;;;14.00;78.92
13705;BME280;6924;52.122;9.952;2022-07-10T05:11:11;101229.66;;;13.89;79.22
13705;BME280;6924;52.122;9.952;2022-07-10T05:13:38;101227.56;;;13.94;79.29
13705;BME280;6924;52.122;9.952;2022-07-10T05:16:05;101231.22;;;13.95;78.49
13705;BME280;6924;52.122;9.952;2022-07-10T05:18:31;101230.00;;;13.87;78.21
13705;BME280;6924;52.122;9.952;2022-07-10T05:20:58;101231.53;;;13.93;78.05
13705;BME280;6924;52.122;9.952;2022-07-10T05:23:26;101226.25;;;14.00;78.00
13705;BME280;6924;52.122;9.952;2022-07-10T05:25:52;101227.41;;;13.99;77.46
13705;BME280;6924;52.122;9.952;2022-07-10T05:28:19;101221.94;;;14.03;76.82
13705;BME280;6924;52.122;9.952;2022-07-10T05:30:45;101234.66;;;14.05;77.03
13705;BME280;6924;52.122;9.952;2022-07-10T05:33:11;101233.09;;;13.99;76.82
13705;BME280;6924;52.122;9.952;2022-07-10T05:35:38;101246.69;;;14.02;77.50
13705;BME280;6924;52.122;9.952;2022-07-10T05:38:04;101244.88;;;14.06;77.25
13705;BME280;6924;52.122;9.952;2022-07-10T05:40:32;101242.88;;;13.84;77.84
13705;BME280;6924;52.122;9.952;2022-07-10T05:42:59;101240.59;;;13.95;78.27
13705;BME280;6924;52.122;9.952;2022-07-10T05:45:25;101235.13;;;13.99;78.09
13705;BME280;6924;52.122;9.952;2022-07-10T05:47:52;101231.97;;;14.00;78.18
13705;BME280;6924;52.122;9.952;2022-07-10T05:50:18;101234.59;;;13.97;77.31
13705;BME280;6924;52.122;9.952;2022-07-10T05:52:45;101234.34;;;14.07;77.36
13705;BME280;6924;52.122;9.952;2022-07-10T05:55:11;101230.47;;;14.03;76.61
13705;BME280;6924;52.122;9.952;2022-07-10T05:57:39;101229.50;;;14.08;77.27
13705;BME280;6924;52.122;9.952;2022-07-10T06:00:07;101228.22;;;14.14;77.03
13705;BME280;6924;52.122;9.952;2022-07-10T06:02:34;101224.06;;;14.20;76.79
13705;BME280;6924;52.122;9.952;2022-07-10T06:05:01;101233.81;;;14.27;76.33
13705;BME280;6924;52.122;9.952;2022-07-10T06:07:27;101238.63;;;14.18;77.38
13705;BME280;6924;52.122;9.952;2022-07-10T06:09:54;101242.59;;;14.17;76.21
13705;BME280;6924;52.122;9.952;2022-07-10T06:12:21;101240.19;;;14.24;76.47
13705;BME280;6924;52.122;9.952;2022-07-10T06:14:49;101239.84;;;14.26;76.58
13705;BME280;6924;52.122;9.952;2022-07-10T06:17:15;101250.38;;;14.25;77.64
13705;BME280;6924;52.122;9.952;2022-07-10T06:19:42;101239.72;;;14.31;76.16
13705;BME280;6924;52.122;9.952;2022-07-10T06:22:08;101244.09;;;14.37;75.36
13705;BME280;6924;52.122;9.952;2022-07-10T06:24:53;101243.97;;;14.42;75.53
13705;BME280;6924;52.122;9.952;2022-07-10T06:27:19;101246.31;;;14.40;75.54
13705;BME280;6924;52.122;9.952;2022-07-10T06:29:46;101246.31;;;14.40;75.58
13705;BME280;6924;52.122;9.952;2022-07-10T06:32:13;101256.41;;;14.46;76.25
13705;BME280;6924;52.122;9.952;2022-07-10T06:34:40;101253.28;;;14.57;75.41
13705;BME280;6924;52.122;9.952;2022-07-10T06:37:06;101254.91;;;14.49;75.00
13705;BME280;6924;52.122;9.952;2022-07-10T06:39:33;101249.16;;;14.40;75.32
13705;BME280;6924;52.122;9.952;2022-07-10T06:42:01;101253.22;;;14.48;74.92
13705;BME280;6924;52.122;9.952;2022-07-10T06:44:28;101245.16;;;14.64;74.61
13705;BME280;6924;52.122;9.952;2022-07-10T06:46:55;101255.50;;;14.60;74.50
13705;BME280;6924;52.122;9.952;2022-07-10T06:49:37;101249.69;;;14.65;75.18
13705;BME280;6924;52.122;9.952;2022-07-10T06:52:04;101246.00;;;14.64;75.18
13705;BME280;6924;52.122;9.952;2022-07-10T06:54:30;101252.56;;;14.74;74.08
13705;BME280;6924;52.122;9.952;2022-07-10T06:56:57;101238.34;;;14.74;72.83
13705;BME280;6924;52.122;9.952;2022-07-10T06:59:24;101244.75;;;14.79;73.71
13705;BME280;6924;52.122;9.952;2022-07-10T07:01:50;101238.53;;;14.77;71.68
13705;BME280;6924;52.122;9.952;2022-07-10T07:04:17;101244.91;;;14.83;72.44
13705;BME280;6924;52.122;9.952;2022-07-10T07:06:45;101250.44;;;14.88;72.11
13705;BME280;6924;52.122;9.952;2022-07-10T07:09:11;101244.44;;;14.90;70.31
13705;BME280;6924;52.122;9.952;2022-07-10T07:11:38;101242.63;;;14.94;70.84
13705;BME280;6924;52.122;9.952;2022-07-10T07:14:04;101246.41;;;14.80;71.84
13705;BME280;6924;52.122;9.952;2022-07-10T07:16:31;101244.13;;;14.91;71.71
13705;BME280;6924;52.122;9.952;2022-07-10T07:19:06;101243.13;;;14.96;69.46
13705;BME280;6924;52.122;9.952;2022-07-10T07:21:33;101240.59;;;14.94;70.65
13705;BME280;6924;52.122;9.952;2022-07-10T07:24:18;101237.66;;;15.08;71.79
13705;BME280;6924;52.122;9.952;2022-07-10T07:26:45;101232.31;;;15.15;71.78
13705;BME280;6924;52.122;9.952;2022-07-10T07:29:12;101228.63;;;15.23;71.84
13705;BME280;6924;52.122;9.952;2022-07-10T07:31:40;101231.69;;;15.27;70.43
13705;BME280;6924;52.122;9.952;2022-07-10T07:34:07;101230.88;;;15.35;72.13
13705;BME280;6924;52.122;9.952;2022-07-10T07:36:33;101231.88;;;15.31;68.55
13705;BME280;6924;52.122;9.952;2022-07-10T07:39:00;101229.03;;;15.39;68.25
13705;BME280;6924;52.122;9.952;2022-07-10T07:41:28;101228.19;;;15.47;70.38
13705;BME280;6924;52.122;9.952;2022-07-10T07:43:54;101230.56;;;15.63;67.88
13705;BME280;6924;52.122;9.952;2022-07-10T07:46:21;101226.63;;;15.73;66.13
13705;BME280;6924;52.122;9.952;2022-07-10T07:48:47;101222.44;;;15.79;65.47
13705;BME280;6924;52.122;9.952;2022-07-10T07:51:14;101213.03;;;15.87;65.43
13705;BME280;6924;52.122;9.952;2022-07-10T07:53:41;101227.44;;;15.73;66.05
13705;BME280;6924;52.122;9.952;2022-07-10T07:56:07;101230.75;;;15.66;67.55
13705;BME280;6924;52.122;9.952;2022-07-10T07:58:35;101220.22;;;15.76;67.66
13705;BME280;6924;52.122;9.952;2022-07-10T08:01:01;101226.78;;;15.85;68.20
13705;BME280;6924;52.122;9.952;2022-07-10T08:03:28;101231.84;;;15.97;68.23
13705;BME280;6924;52.122;9.952;2022-07-10T08:05:54;101234.31;;;16.07;69.08
13705;BME280;6924;52.122;9.952;2022-07-10T08:08:21;101227.09;;;16.18;67.27
13705;BME280;6924;52.122;9.952;2022-07-10T08:10:47;101231.34;;;16.03;65.30
13705;BME280;6924;52.122;9.952;2022-07-10T08:13:14;101233.00;;;16.04;64.99
13705;BME280;6924;52.122;9.952;2022-07-10T08:15:42;101231.16;;;16.08;66.21
13705;BME280;6924;52.122;9.952;2022-07-10T08:18:08;101225.63;;;16.03;63.42
13705;BME280;6924;52.122;9.952;2022-07-10T08:20:35;101228.28;;;16.08;64.28
13705;BME280;6924;52.122;9.952;2022-07-10T08:23:01;101233.50;;;16.24;64.70
13705;BME280;6924;52.122;9.952;2022-07-10T08:25:28;101216.03;;;16.34;62.85
13705;BME280;6924;52.122;9.952;2022-07-10T08:28:02;101230.44;;;16.29;64.24
13705;BME280;6924;52.122;9.952;2022-07-10T08:30:31;101232.81;;;16.18;62.59
13705;BME280;6924;52.122;9.952;2022-07-10T08:32:59;101222.25;;;16.10;62.81
13705;BME280;6924;52.122;9.952;2022-07-10T08:35:25;101231.84;;;15.97;62.90
13705;BME280;6924;52.122;9.952;2022-07-10T08:37:52;101234.69;;;15.97;62.90
13705;BME280;6924;52.122;9.952;2022-07-10T08:40:21;101222.25;;;16.01;63.92
13705;BME280;6924;52.122;9.952;2022-07-10T08:42:48;101229.63;;;16.20;65.72
13705;BME280;6924;52.122;9.952;2022-07-10T08:45:15;101220.06;;;16.24;62.14
13705;BME280;6924;52.122;9.952;2022-07-10T08:47:41;101229.28;;;16.30;62.46
13705;BME280;6924;52.122;9.952;2022-07-10T08:50:16;101226.06;;;16.40;63.43
13705;BME280;6924;52.122;9.952;2022-07-10T08:52:52;101226.06;;;16.40;63.25
13705;BME280;6924;52.122;9.952;2022-07-10T08:55:23;101233.81;;;16.31;64.65
13705;BME280;6924;52.122;9.952;2022-07-10T08:57:50;101228.75;;;16.45;66.11
13705;BME280;6924;52.122;9.952;2022-07-10T09:00:17;101221.19;;;16.49;64.53
13705;BME280;6924;52.122;9.952;2022-07-10T09:02:43;101220.16;;;16.63;62.99
13705;BME280;6924;52.122;9.952;2022-07-10T09:05:11;101216.41;;;16.71;60.25
13705;BME280;6924;52.122;9.952;2022-07-10T09:07:39;101216.59;;;16.83;60.03
13705;BME280;6924;52.122;9.952;2022-07-10T09:10:09;101213.03;;;16.78;60.52
13705;BME280;6924;52.122;9.952;2022-07-10T09:12:50;101219.59;;;16.78;59.84
13705;BME280;6924;52.122;9.952;2022-07-10T09:15:18;101208.00;;;16.74;58.84
13705;BME280;6924;52.122;9.952;2022-07-10T09:17:52;101213.91;;;16.87;58.30
13705;BME280;6924;52.122;9.952;2022-07-10T09:20:31;101195.66;;;17.09;58.58
13705;BME280;6924;52.122;9.952;2022-07-10T09:23:09;101203.94;;;17.31;58.90
13705;BME280;6924;52.122;9.952;2022-07-10T09:25:40;101202.28;;;17.51;57.12
13705;BME280;6924;52.122;9.952;2022-07-10T09:28:06;101208.78;;;17.61;54.88
13705;BME280;6924;52.122;9.952;2022-07-10T09:30:34;101204.44;;;17.84;56.82
13705;BME280;6924;52.122;9.952;2022-07-10T09:33:18;101188.91;;;18.06;53.22
13705;BME280;6924;52.122;9.952;2022-07-10T09:36:03;101190.72;;;18.11;53.79
13705;BME280;6924;52.122;9.952;2022-07-10T09:38:54;101199.47;;;18.14;57.96
13705;BME280;6924;52.122;9.952;2022-07-10T09:41:24;101187.59;;;18.04;53.54
13705;BME280;6924;52.122;9.952;2022-07-10T09:43:52;101181.47;;;17.93;53.28
13705;BME280;6924;52.122;9.952;2022-07-10T09:46:22;101181.31;;;17.89;54.84
13705;BME280;6924;52.122;9.952;2022-07-10T09:49:00;101186.78;;;17.82;55.67
13705;BME280;6924;52.122;9.952;2022-07-10T09:51:30;101191.22;;;17.92;57.73
13705;BME280;6924;52.122;9.952;2022-07-10T09:54:00;101190.31;;;18.00;56.36
13705;BME280;6924;52.122;9.952;2022-07-10T09:56:28;101190.94;;;18.06;56.19
13705;BME280;6924;52.122;9.952;2022-07-10T09:58:59;101196.19;;;18.04;54.97
13705;BME280;6924;52.122;9.952;2022-07-10T10:01:27;101185.41;;;18.01;56.19
13705;BME280;6924;52.122;9.952;2022-07-10T10:03:57;101195.31;;;18.03;57.55
13705;BME280;6924;52.122;9.952;2022-07-10T10:06:26;101201.56;;;17.84;55.45
13705;BME280;6924;52.122;9.952;2022-07-10T10:08:57;101187.09;;;17.81;55.02
13705;BME280;6924;52.122;9.952;2022-07-10T10:11:27;101189.00;;;17.98;54.96
13705;BME280;6924;52.122;9.952;2022-07-10T10:13:54;101192.03;;;18.13;54.74
13705;BME280;6924;52.122;9.952;2022-07-10T10:16:21;101182.47;;;18.09;55.25
13705;BME280;6924;52.122;9.952;2022-07-10T10:18:50;101180.94;;;18.12;56.27
13705;BME280;6924;52.122;9.952;2022-07-10T10:21:34;101190.59;;;18.07;54.56
13705;BME280;6924;52.122;9.952;2022-07-10T10:24:02;101198.41;;;17.98;51.10
13705;BME280;6924;52.122;9.952;2022-07-10T10:26:30;101192.28;;;17.87;53.19
13705;BME280;6924;52.122;9.952;2022-07-10T10:28:59;101190.13;;;17.84;54.32
13705;BME280;6924;52.122;9.952;2022-07-10T10:31:26;101184.53;;;17.88;55.69
13705;BME280;6924;52.122;9.952;2022-07-10T10:33:56;101186.66;;;17.70;54.70
13705;BME280;6924;52.122;9.952;2022-07-10T10:36:47;101186.09;;;17.76;55.77
13705;BME280;6924;52.122;9.952;2022-07-10T10:39:17;101177.41;;;17.94;54.14
13705;BME280;6924;52.122;9.952;2022-07-10T10:41:50;101172.63;;;18.19;53.36
13705;BME280;6924;52.122;9.952;2022-07-10T10:44:29;101173.31;;;18.49;52.21
13705;BME280;6924;52.122;9.952;2022-07-10T10:47:00;101185.59;;;18.83;52.59
13705;BME280;6924;52.122;9.952;2022-07-10T10:49:53;101180.25;;;18.94;51.17
13705;BME280;6924;52.122;9.952;2022-07-10T10:52:22;101184.66;;;19.04;51.96
13705;BME280;6924;52.122;9.952;2022-07-10T10:55:02;101182.13;;;18.77;49.14
13705;BME280;6924;52.122;9.952;2022-07-10T10:57:43;101184.13;;;18.77;49.48
13705;BME280;6924;52.122;9.952;2022-07-10T11:00:14;101183.28;;;18.76;50.00
13705;BME280;6924;52.122;9.952;2022-07-10T11:02:42;101176.22;;;18.62;50.77
13705;BME280;6924;52.122;9.952;2022-07-10T11:05:38;101171.44;;;18.66;52.89
13705;BME280;6924;52.122;9.952;2022-07-10T11:08:06;101180.94;;;18.91;51.78
13705;BME280;6924;52.122;9.952;2022-07-10T11:10:35;101190.38;;;19.04;51.61
13705;BME280;6924;52.122;9.952;2022-07-10T11:13:04;101176.91;;;19.16;49.75
13705;BME280;6924;52.122;9.952;2022-07-10T11:15:32;101175.22;;;19.28;51.26
13705;BME280;6924;52.122;9.952;2022-07-10T11:18:05;101179.28;;;19.14;50.26
13705;BME280;6924;52.122;9.952;2022-07-10T11:20:33;101180.69;;;19.33;49.58
13705;BME280;6924;52.122;9.952;2022-07-10T11:23:09;101179.63;;;19.25;48.40
13705;BME280;6924;52.122;9.952;2022-07-10T11:25:44;101170.31;;;19.28;48.58
13705;BME280;6924;52.122;9.952;2022-07-10T11:28:21;101166.44;;;19.49;47.76
13705;BME280;6924;52.122;9.952;2022-07-10T11:30:50;101170.53;;;19.35;48.04
13705;BME280;6924;52.122;9.952;2022-07-10T11:33:17;101164.91;;;19.39;49.43
13705;BME280;6924;52.122;9.952;2022-07-10T11:35:46;101168.66;;;19.27;48.17
13705;BME280;6924;52.122;9.952;2022-07-10T11:38:19;101165.31;;;19.01;50.33
13705;BME280;6924;52.122;9.952;2022-07-10T11:40:45;101158.00;;;18.78;50.35
13705;BME280;6924;52.122;9.952;2022-07-10T11:43:12;101165.97;;;18.73;49.99
13705;BME280;6924;52.122;9.952;2022-07-10T11:45:43;101160.88;;;18.91;51.45
13705;BME280;6924;52.122;9.952;2022-07-10T11:48:16;101166.59;;;18.91;51.04
13705;BME280;6924;52.122;9.952;2022-07-10T11:50:43;101157.66;;;18.92;50.71
13705;BME280;6924;52.122;9.952;2022-07-10T11:53:09;101163.50;;;18.84;49.43
13705;BME280;6924;52.122;9.952;2022-07-10T11:55:37;101162.66;;;18.95;52.30
13705;BME280;6924;52.122;9.952;2022-07-10T11:58:13;101155.63;;;19.05;50.45
13705;BME280;6924;52.122;9.952;2022-07-10T12:00:39;101165.31;;;19.01;49.25
13705;BME280;6924;52.122;9.952;2022-07-10T12:03:18;101166.50;;;18.99;49.16
13705;BME280;6924;52.122;9.952;2022-07-10T12:05:45;101162.44;;;18.88;48.41
13705;BME280;6924;52.122;9.952;2022-07-10T12:08:12;101163.63;;;18.87;50.02
13705;BME280;6924;52.122;9.952;2022-07-10T12:10:39;101167.69;;;18.86;49.09
13705;BME280;6924;52.122;9.952;2022-07-10T12:13:08;101167.94;;;19.06;50.90
13705;BME280;6924;52.122;9.952;2022-07-10T12:15:37;101169.34;;;19.24;51.02
13705;BME280;6924;52.122;9.952;2022-07-10T12:18:05;101160.03;;;19.15;49.79
13705;BME280;6924;52.122;9.952;2022-07-10T12:20:33;101173.19;;;19.16;50.75
13705;BME280;6924;52.122;9.952;2022-07-10T12:23:00;101167.09;;;19.05;49.04
13705;BME280;6924;52.122;9.952;2022-07-10T12:25:27;101174.97;;;19.08;49.80
13705;BME280;6924;52.122;9.952;2022-07-10T12:27:57;101180.47;;;19.13;51.68
13705;BME280;6924;52.122;9.952;2022-07-10T12:30:35;101184.41;;;18.96;50.28
13705;BME280;6924;52.122;9.952;2022-07-10T12:33:07;101185.97;;;19.06;50.75
13705;BME280;6924;52.122;9.952;2022-07-10T12:35:47;101191.22;;;19.04;52.09
13705;BME280;6924;52.122;9.952;2022-07-10T12:38:16;101188.84;;;18.94;50.88
13705;BME280;6924;52.122;9.952;2022-07-10T12:40:43;101198.75;;;18.96;51.64
13705;BME280;6924;52.122;9.952;2022-07-10T12:43:09;101197.78;;;18.92;52.01
13705;BME280;6924;52.122;9.952;2022-07-10T12:45:37;101199.59;;;18.97;51.18
13705;BME280;6924;52.122;9.952;2022-07-10T12:48:04;101198.38;;;18.86;51.39
13705;BME280;6924;52.122;9.952;2022-07-10T12:50:32;101198.69;;;18.72;52.81
13705;BME280;6924;52.122;9.952;2022-07-10T12:53:09;101206.03;;;18.61;53.39
13705;BME280;6924;52.122;9.952;2022-07-10T12:55:38;101206.03;;;18.61;53.52
13705;BME280;6924;52.122;9.952;2022-07-10T12:58:07;101196.03;;;18.54;53.83
13705;BME280;6924;52.122;9.952;2022-07-10T13:00:44;101196.38;;;18.53;53.67
13705;BME280;6924;52.122;9.952;2022-07-10T13:03:17;101199.06;;;18.37;55.36
13705;BME280;6924;52.122;9.952;2022-07-10T13:05:44;101208.25;;;18.43;55.60
13705;BME280;6924;52.122;9.952;2022-07-10T13:08:13;101202.31;;;18.48;55.79